Airfield :
LOGIN :

Register | Disclaimer

   EN    FR    IT 

 










Legend :    VFR   Marginal VFR   IFR   Intensive IFR   Very Intensive IFR
Visi :
Ceiling :
>= 8 km
>= 3000ft
5 to 8 km
1000 to 3000 ft
1500m to 5 km
500 to 1000 ft
800 to 1500m
200 to 500 ft
< 800m
< 200 ft
Symbols :   Thunderstorms  Fog  Heavy snow  Heavy precipitations  Wind > 20 kt
SIGMETs :     Misc.  Thunderstorms  Icing  Turbulence  Mountain Waves  Volcanic Ashes







- Airport Elevation : 978 ft
- IATA code : LNZ


LOWL - Linz

CURRENT METAR :
  • 180650Z 26002KT 0200 R26/0200N FG BKN002 06/06 Q1020 TEMPO 0800 BCFG SCT002 BKN010

EXPIRED METARs :
  • 180620Z VRB02KT 0400 R26/P1500U BCFG BR BKN002 05/05 Q1020 TEMPO 0300 FG VV001
  • 180550Z VRB01KT 3600 BR MIFG VCFG FEW003 SCT010 05/04 Q1020 TEMPO 0300 FG VV002
  • 180520Z 19002KT 4500 BR BCFG FEW003 05/05 Q1019 TEMPO 0300 FG VV002
  • 180450Z VRB01KT 4700 0800E R26/1000D BR BCFG FEW003 05/05 Q1019 TEMPO 0300 FG VV002
  • 180420Z VRB01KT 5000 R26/P1500U BR FEW007 05/04 Q1019 BECMG 1500 BKN003 TEMPO 0300

TAF TAF LOWL
Valid from the 18 at 06:00 until the 19 at 06:00 UTC


180515Z 1806/1906 VRB02KT 5000 BR SCT005 TX16/1815Z TN07/1806Z
TEMPO 1806/1810 1200 BCFG BKN004
PROB40 1806/1809 0300 FG VV002
BECMG 1809/1811 27004KT 9999 NSW FEW040
BECMG 1822/1901 8000 BKN040
PROB30 1903/1906 0600 BCFG FEW003 SCT045
No reported NOTAMs for that airfield.



MET'MAP, your aeronautical weather chart ! - Copyright ORBIFLY December 2007 - Disclaimer

ORBIFLY MET'MAP TEAM :

Programming & Development : Alexandra Zaïnal
Concept & Development : Baudouin d'Aumeries
Co-Development & Prog : Marc-Olivier Méhu
Technical & hardware support : Manuel Goepfert

Contact : metmap@orbifly.com




SOURCES & CREDITS :

   NOAA